Time;durP1;ratioP1;P1;durP2;ratioP2;P2;SDS_P1;SDS_P2;PMS_P1;PMS_P2;Temp;Humidity;BMP_temperature;BMP_pressure;BME280_temperature;BME280_humidity;BME280_pressure;Samples;Min_cycle;Max_cycle;Signal;HPM_P1;HPM_P2
2022/09/05 00:00:05;;;;;;;9.78;8.13;;;;;;;;;;1896739;75;21558;-73
2022/09/05 00:02:38;;;;;;;9.30;8.30;;;;;;;;;;1895085;74;21185;-72
2022/09/05 00:05:11;;;;;;;11.60;8.70;;;;;;;;;;1889955;74;21124;-72
2022/09/05 00:07:42;;;;;;;8.33;7.50;;;;;;;;;;1895584;75;21099;-69
2022/09/05 00:10:15;;;;;;;12.90;8.58;;;;;;;;;;1891267;75;21129;-72
2022/09/05 00:12:47;;;;;;;9.58;8.40;;;;;;;;;;1894965;75;21157;-73
2022/09/05 00:15:39;;;;;;;11.35;9.10;;;;;;;;;;1890671;74;21082;-72
2022/09/05 00:18:11;;;;;;;12.80;8.95;;;;;;;;;;1874018;75;21616;-72
2022/09/05 00:20:44;;;;;;;12.70;9.95;;;;;;;;;;1874822;75;21230;-72
2022/09/05 00:23:17;;;;;;;12.10;9.10;;;;;;;;;;1869032;76;21130;-72
2022/09/05 00:25:50;;;;;;;15.68;9.60;;;;;;;;;;1878993;75;21707;-72
2022/09/05 00:28:22;;;;;;;12.33;9.10;;;;;;;;;;1874083;75;21175;-72
2022/09/05 00:30:54;;;;;;;11.53;8.60;;;;;;;;;;1874730;75;21274;-72
2022/09/05 00:33:25;;;;;;;67.65;13.85;;;;;;;;;;1874181;76;21090;-72
2022/09/05 00:35:58;;;;;;;12.45;8.60;;;;;;;;;;1874035;76;21054;-72
2022/09/05 00:38:29;;;;;;;11.05;7.83;;;;;;;;;;1894861;74;21110;-72
2022/09/05 00:41:03;;;;;;;10.23;7.55;;;;;;;;;;1875630;75;21152;-71
2022/09/05 00:43:35;;;;;;;10.45;8.50;;;;;;;;;;1863101;76;21217;-71
2022/09/05 00:46:07;;;;;;;10.58;9.30;;;;;;;;;;1885535;74;21620;-72
2022/09/05 00:48:38;;;;;;;11.60;9.63;;;;;;;;;;1859459;77;21186;-71
2022/09/05 00:51:09;;;;;;;9.98;8.68;;;;;;;;;;1864097;77;21257;-71
2022/09/05 00:53:41;;;;;;;14.55;10.23;;;;;;;;;;1863869;75;21175;-71
2022/09/05 00:56:13;;;;;;;11.05;9.13;;;;;;;;;;1872822;75;21105;-72
2022/09/05 00:58:45;;;;;;;12.25;8.98;;;;;;;;;;1864649;76;21659;-72
2022/09/05 01:01:16;;;;;;;9.83;8.83;;;;;;;;;;1870091;75;21611;-72
2022/09/05 01:03:47;;;;;;;11.00;8.85;;;;;;;;;;1873519;75;21096;-72
2022/09/05 01:06:19;;;;;;;17.35;9.48;;;;;;;;;;1882146;74;21043;-72
2022/09/05 01:08:51;;;;;;;12.47;9.15;;;;;;;;;;1887875;76;21211;-73
2022/09/05 01:11:22;;;;;;;13.72;9.40;;;;;;;;;;1878903;76;21088;-73
2022/09/05 01:13:53;;;;;;;11.60;8.80;;;;;;;;;;1864676;76;21184;-73
2022/09/05 01:16:25;;;;;;;11.35;9.18;;;;;;;;;;1862616;77;21146;-73
2022/09/05 01:18:56;;;;;;;10.43;9.38;;;;;;;;;;1820224;77;21208;-73
2022/09/05 01:21:28;;;;;;;11.25;9.70;;;;;;;;;;1826758;77;21196;-73
2022/09/05 01:23:59;;;;;;;14.93;9.55;;;;;;;;;;1868132;76;21576;-73
2022/09/05 01:26:31;;;;;;;12.78;9.25;;;;;;;;;;1868288;76;21169;-74
2022/09/05 01:29:03;;;;;;;12.05;9.43;;;;;;;;;;1833427;77;21122;-74
2022/09/05 01:31:36;;;;;;;12.18;9.10;;;;;;;;;;1830996;77;21137;-75
2022/09/05 01:34:07;;;;;;;12.03;9.18;;;;;;;;;;1822704;77;21134;-75
2022/09/05 01:36:40;;;;;;;12.50;9.50;;;;;;;;;;1857602;76;21124;-72
2022/09/05 01:39:11;;;;;;;10.53;8.88;;;;;;;;;;1852728;76;21121;-72
2022/09/05 01:41:44;;;;;;;11.50;8.63;;;;;;;;;;1848824;76;21133;-73
2022/09/05 01:44:16;;;;;;;11.25;8.85;;;;;;;;;;1849508;77;21167;-74
2022/09/05 01:46:48;;;;;;;10.55;9.45;;;;;;;;;;1858677;76;21772;-74
2022/09/05 01:49:23;;;;;;;11.83;8.88;;;;;;;;;;1860465;76;21299;-75
2022/09/05 01:51:52;;;;;;;10.70;8.55;;;;;;;;;;1847098;77;21147;-73
2022/09/05 01:54:24;;;;;;;9.10;8.15;;;;;;;;;;1818213;78;21125;-74
2022/09/05 01:56:57;;;;;;;10.48;9.40;;;;;;;;;;1858648;76;21157;-75
2022/09/05 01:59:28;;;;;;;12.30;9.45;;;;;;;;;;1821846;77;21164;-74
2022/09/05 02:02:00;;;;;;;10.93;9.60;;;;;;;;;;1853326;77;21178;-74
2022/09/05 02:04:31;;;;;;;11.22;8.48;;;;;;;;;;1813572;79;21182;-74
2022/09/05 02:07:03;;;;;;;9.48;7.80;;;;;;;;;;1853818;76;21146;-74
2022/09/05 02:09:36;;;;;;;9.25;7.87;;;;;;;;;;1846462;77;21706;-75
2022/09/05 02:12:09;;;;;;;9.43;8.00;;;;;;;;;;1845115;76;21185;-74
2022/09/05 02:14:40;;;;;;;11.93;9.05;;;;;;;;;;1851981;76;21161;-75
2022/09/05 02:17:12;;;;;;;10.53;8.58;;;;;;;;;;1862793;76;21118;-74
2022/09/05 02:19:46;;;;;;;11.28;9.23;;;;;;;;;;1854945;75;21173;-74
2022/09/05 02:22:17;;;;;;;12.73;9.48;;;;;;;;;;1863765;75;21131;-73
2022/09/05 02:24:48;;;;;;;11.53;9.28;;;;;;;;;;1862305;75;21847;-74
2022/09/05 02:27:21;;;;;;;11.03;9.30;;;;;;;;;;1859156;75;21219;-74
2022/09/05 02:29:55;;;;;;;11.20;8.58;;;;;;;;;;1863850;76;21134;-75
2022/09/05 02:32:27;;;;;;;12.10;10.03;;;;;;;;;;1850757;76;21203;-74
2022/09/05 02:34:58;;;;;;;11.65;9.05;;;;;;;;;;1857696;76;21163;-73
2022/09/05 02:37:30;;;;;;;11.68;8.83;;;;;;;;;;1849547;76;21197;-73
2022/09/05 02:40:03;;;;;;;10.43;8.68;;;;;;;;;;1848892;76;21103;-74
2022/09/05 02:42:35;;;;;;;10.75;8.88;;;;;;;;;;1860241;76;21573;-74
2022/09/05 02:45:08;;;;;;;10.65;9.13;;;;;;;;;;1853901;76;21138;-74
2022/09/05 02:47:41;;;;;;;9.78;8.63;;;;;;;;;;1853654;76;21270;-74
2022/09/05 02:50:12;;;;;;;12.73;9.25;;;;;;;;;;1858908;76;21110;-74
2022/09/05 02:52:45;;;;;;;12.05;9.73;;;;;;;;;;1851052;76;21220;-75
2022/09/05 02:55:18;;;;;;;12.30;8.78;;;;;;;;;;1853778;76;21101;-75
2022/09/05 02:57:52;;;;;;;13.28;9.58;;;;;;;;;;1853703;76;21527;-74
2022/09/05 03:00:24;;;;;;;11.80;9.15;;;;;;;;;;1855412;76;21197;-73
2022/09/05 03:02:56;;;;;;;9.90;8.90;;;;;;;;;;1854033;76;21179;-73
2022/09/05 03:05:27;;;;;;;15.40;8.78;;;;;;;;;;1854050;76;21066;-75
2022/09/05 03:07:58;;;;;;;10.63;9.30;;;;;;;;;;1853593;76;21159;-73
2022/09/05 03:10:28;;;;;;;10.35;9.08;;;;;;;;;;1851463;76;21228;-74
2022/09/05 03:13:02;;;;;;;11.80;8.43;;;;;;;;;;1854965;76;21185;-75
2022/09/05 03:15:33;;;;;;;10.53;9.45;;;;;;;;;;1870906;75;21242;-74
2022/09/05 03:18:04;;;;;;;10.80;9.73;;;;;;;;;;1865908;75;21165;-74
2022/09/05 03:20:37;;;;;;;13.40;10.53;;;;;;;;;;1829444;77;21277;-74
2022/09/05 03:23:08;;;;;;;12.23;9.95;;;;;;;;;;1830492;77;21106;-74
2022/09/05 03:25:40;;;;;;;13.03;9.63;;;;;;;;;;1832235;77;21163;-74
2022/09/05 03:28:11;;;;;;;11.93;10.13;;;;;;;;;;1832673;76;21181;-75
2022/09/05 03:30:41;;;;;;;11.12;9.95;;;;;;;;;;1813303;78;21181;-75
2022/09/05 03:33:13;;;;;;;12.15;10.85;;;;;;;;;;1839728;76;21183;-74
2022/09/05 03:35:44;;;;;;;14.05;11.28;;;;;;;;;;1842331;77;21140;-72
2022/09/05 03:38:15;;;;;;;10.98;9.88;;;;;;;;;;1829029;77;21145;-74
2022/09/05 03:40:47;;;;;;;10.90;9.83;;;;;;;;;;1830179;77;21120;-74
2022/09/05 03:43:18;;;;;;;14.55;9.50;;;;;;;;;;1836064;77;21147;-74
2022/09/05 03:45:49;;;;;;;10.35;9.20;;;;;;;;;;1832262;77;21155;-75
2022/09/05 03:48:21;;;;;;;11.22;9.18;;;;;;;;;;1825041;77;21286;-74
2022/09/05 03:50:54;;;;;;;11.38;8.95;;;;;;;;;;1832163;77;21932;-74
2022/09/05 03:53:27;;;;;;;10.05;8.80;;;;;;;;;;1826905;77;21261;-76
2022/09/05 03:55:58;;;;;;;11.03;9.20;;;;;;;;;;1844862;76;21172;-76
2022/09/05 03:58:33;;;;;;;13.15;9.18;;;;;;;;;;1813188;78;21177;-75
2022/09/05 04:01:05;;;;;;;11.80;9.43;;;;;;;;;;1842987;76;21222;-75
2022/09/05 04:03:37;;;;;;;12.00;9.88;;;;;;;;;;1840020;76;21174;-75
2022/09/05 04:06:09;;;;;;;10.78;9.78;;;;;;;;;;1836190;76;21681;-76
2022/09/05 04:08:42;;;;;;;12.93;9.70;;;;;;;;;;1835708;76;21129;-75
2022/09/05 04:11:14;;;;;;;12.33;9.75;;;;;;;;;;1844971;76;21482;-76
2022/09/05 04:13:46;;;;;;;12.95;10.18;;;;;;;;;;1838425;76;21239;-75
2022/09/05 04:16:18;;;;;;;12.73;9.80;;;;;;;;;;1840875;76;21237;-75
2022/09/05 04:18:49;;;;;;;15.08;9.88;;;;;;;;;;1841206;76;21186;-75
2022/09/05 04:21:21;;;;;;;15.58;11.05;;;;;;;;;;1873665;75;21071;-75
2022/09/05 04:23:51;;;;;;;11.22;10.03;;;;;;;;;;1860103;76;21152;-75
2022/09/05 04:26:22;;;;;;;11.83;9.08;;;;;;;;;;1857739;76;21150;-74
2022/09/05 04:28:54;;;;;;;10.48;9.48;;;;;;;;;;1860922;76;21154;-75
2022/09/05 04:31:26;;;;;;;11.68;10.48;;;;;;;;;;1858171;75;21151;-74
2022/09/05 04:33:58;;;;;;;12.28;10.95;;;;;;;;;;1869987;76;21252;-75
2022/09/05 04:36:31;;;;;;;11.15;10.05;;;;;;;;;;1854567;77;21173;-74
2022/09/05 04:39:03;;;;;;;11.28;10.00;;;;;;;;;;1861400;75;21499;-75
2022/09/05 04:41:34;;;;;;;15.72;12.30;;;;;;;;;;1857904;75;21096;-74
2022/09/05 04:44:07;;;;;;;13.53;11.05;;;;;;;;;;1861458;75;21165;-75
2022/09/05 04:46:39;;;;;;;13.25;10.88;;;;;;;;;;1857029;76;21124;-74
2022/09/05 04:49:12;;;;;;;13.48;9.78;;;;;;;;;;1856623;76;21132;-74
2022/09/05 04:51:45;;;;;;;11.53;10.45;;;;;;;;;;1856052;77;21220;-74
2022/09/05 04:54:18;;;;;;;10.98;9.88;;;;;;;;;;1856227;76;21129;-75
2022/09/05 04:56:49;;;;;;;10.88;9.53;;;;;;;;;;1868015;76;21299;-75
2022/09/05 04:59:21;;;;;;;11.73;10.48;;;;;;;;;;1851968;76;21083;-75
2022/09/05 05:01:54;;;;;;;15.98;10.63;;;;;;;;;;1857876;75;21746;-74
2022/09/05 05:04:45;;;;;;;12.90;10.95;;;;;;;;;;1860527;76;21158;-75
2022/09/05 05:07:16;;;;;;;13.00;9.78;;;;;;;;;;1792432;78;21091;-75
2022/09/05 05:09:48;;;;;;;13.53;10.43;;;;;;;;;;1857504;77;21143;-73
2022/09/05 05:12:21;;;;;;;12.70;11.12;;;;;;;;;;1805258;78;21143;-75
2022/09/05 05:14:56;;;;;;;12.68;10.38;;;;;;;;;;1785399;79;21189;-75
2022/09/05 05:17:28;;;;;;;11.05;9.93;;;;;;;;;;1779267;79;21182;-75
2022/09/05 05:20:01;;;;;;;12.82;9.90;;;;;;;;;;1829224;77;21106;-75
2022/09/05 05:22:33;;;;;;;11.40;9.83;;;;;;;;;;1841234;76;21230;-74
2022/09/05 05:25:03;;;;;;;10.48;9.48;;;;;;;;;;1794320;78;21303;-75
2022/09/05 05:27:35;;;;;;;11.22;10.13;;;;;;;;;;1757949;80;21198;-75
2022/09/05 05:30:06;;;;;;;9.50;8.60;;;;;;;;;;1840051;76;21150;-74
2022/09/05 05:32:38;;;;;;;10.13;9.00;;;;;;;;;;1853188;76;21206;-75
2022/09/05 05:35:11;;;;;;;10.35;8.78;;;;;;;;;;1833191;77;21165;-75
2022/09/05 05:37:43;;;;;;;11.43;8.73;;;;;;;;;;1834921;77;21248;-75
2022/09/05 05:40:15;;;;;;;11.20;9.10;;;;;;;;;;1835171;77;21174;-76
2022/09/05 05:42:46;;;;;;;11.40;8.93;;;;;;;;;;1850043;77;21095;-74
2022/09/05 05:45:17;;;;;;;9.53;8.60;;;;;;;;;;1844154;77;21218;-74
2022/09/05 05:47:49;;;;;;;9.75;8.68;;;;;;;;;;1837055;77;22338;-74
2022/09/05 05:50:20;;;;;;;10.53;9.53;;;;;;;;;;1848091;77;21153;-74
2022/09/05 05:52:52;;;;;;;10.43;9.25;;;;;;;;;;1830811;77;21700;-75
2022/09/05 05:55:24;;;;;;;10.68;9.55;;;;;;;;;;1833760;76;21161;-75
2022/09/05 05:57:57;;;;;;;13.22;9.75;;;;;;;;;;1826751;77;21743;-75
2022/09/05 06:00:28;;;;;;;31.20;20.55;;;;;;;;;;1834670;76;21190;-74
2022/09/05 06:03:00;;;;;;;10.45;9.45;;;;;;;;;;1836300;77;21390;-74
2022/09/05 06:05:31;;;;;;;10.60;9.25;;;;;;;;;;1845825;75;21242;-76
2022/09/05 06:08:02;;;;;;;9.85;8.88;;;;;;;;;;1860765;75;21147;-75
2022/09/05 06:10:35;;;;;;;10.23;9.23;;;;;;;;;;1859309;76;21157;-75
2022/09/05 06:13:10;;;;;;;11.03;9.90;;;;;;;;;;1855062;76;21132;-76
2022/09/05 06:15:41;;;;;;;11.78;9.35;;;;;;;;;;1864789;76;21155;-75
2022/09/05 06:18:13;;;;;;;10.00;9.10;;;;;;;;;;1860493;75;22426;-75
2022/09/05 06:20:44;;;;;;;10.93;9.85;;;;;;;;;;1862446;76;21221;-73
2022/09/05 06:23:15;;;;;;;10.40;9.40;;;;;;;;;;1864430;76;21165;-75
2022/09/05 06:25:49;;;;;;;10.53;9.35;;;;;;;;;;1869257;76;22080;-75
2022/09/05 06:28:21;;;;;;;11.48;9.28;;;;;;;;;;1856157;76;21156;-72
2022/09/05 06:30:52;;;;;;;13.20;10.28;;;;;;;;;;1857916;76;21164;-74
2022/09/05 06:33:25;;;;;;;11.05;9.63;;;;;;;;;;1859180;76;21180;-76
2022/09/05 06:35:56;;;;;;;9.28;8.35;;;;;;;;;;1858046;75;21698;-76
2022/09/05 06:38:29;;;;;;;10.08;8.80;;;;;;;;;;1858761;75;21137;-76
2022/09/05 06:41:00;;;;;;;10.93;9.13;;;;;;;;;;1864039;76;21187;-76
2022/09/05 06:43:32;;;;;;;10.70;9.68;;;;;;;;;;1862858;76;21183;-76
2022/09/05 06:46:03;;;;;;;10.63;9.50;;;;;;;;;;1868806;75;21296;-75
2022/09/05 06:48:36;;;;;;;10.72;9.63;;;;;;;;;;1866187;76;22306;-75
2022/09/05 06:51:09;;;;;;;11.93;9.30;;;;;;;;;;1864518;76;21053;-76
2022/09/05 06:53:40;;;;;;;12.40;10.23;;;;;;;;;;1871804;76;21213;-75
2022/09/05 06:56:12;;;;;;;10.45;9.38;;;;;;;;;;1869146;76;21233;-75
2022/09/05 06:58:45;;;;;;;12.05;9.50;;;;;;;;;;1859266;76;21178;-75
2022/09/05 07:01:16;;;;;;;11.55;9.65;;;;;;;;;;1864950;76;21085;-76
2022/09/05 07:03:49;;;;;;;11.60;9.50;;;;;;;;;;1863167;76;21600;-76
2022/09/05 07:06:21;;;;;;;11.43;10.23;;;;;;;;;;1855794;76;21158;-75
2022/09/05 07:08:54;;;;;;;13.40;10.03;;;;;;;;;;1798107;79;21241;-75
2022/09/05 07:11:27;;;;;;;11.83;9.98;;;;;;;;;;1773533;79;21699;-75
2022/09/05 07:13:57;;;;;;;10.48;9.20;;;;;;;;;;1771312;79;21306;-72
2022/09/05 07:16:29;;;;;;;12.90;11.05;;;;;;;;;;1839661;77;21190;-74
2022/09/05 07:19:03;;;;;;;10.72;9.43;;;;;;;;;;1792945;78;21568;-74
2022/09/05 07:21:34;;;;;;;12.75;10.78;;;;;;;;;;1840185;77;21134;-73
2022/09/05 07:24:06;;;;;;;11.35;10.30;;;;;;;;;;1840311;77;21286;-72
2022/09/05 07:26:39;;;;;;;11.75;9.70;;;;;;;;;;1843046;77;21110;-71
2022/09/05 07:29:15;;;;;;;11.60;10.50;;;;;;;;;;1835897;77;21189;-72
2022/09/05 07:31:46;;;;;;;13.05;10.55;;;;;;;;;;1832324;77;21180;-73
2022/09/05 07:34:18;;;;;;;12.43;11.12;;;;;;;;;;1837036;76;21172;-73
2022/09/05 07:36:50;;;;;;;11.45;9.50;;;;;;;;;;1837195;77;21139;-75
2022/09/05 07:39:23;;;;;;;10.30;8.80;;;;;;;;;;1814691;76;21133;-74
2022/09/05 07:41:56;;;;;;;10.08;8.65;;;;;;;;;;1852190;76;21135;-74
2022/09/05 07:44:28;;;;;;;9.25;8.33;;;;;;;;;;1838342;77;21109;-76
2022/09/05 07:47:00;;;;;;;9.65;8.35;;;;;;;;;;1769223;79;21186;-74
2022/09/05 07:49:31;;;;;;;12.45;8.63;;;;;;;;;;1766273;80;21831;-76
2022/09/05 07:52:04;;;;;;;8.40;7.50;;;;;;;;;;1760861;80;21139;-74
2022/09/05 07:54:39;;;;;;;10.15;8.00;;;;;;;;;;1811267;78;21148;-76
2022/09/05 07:57:10;;;;;;;9.75;8.83;;;;;;;;;;1806608;78;21160;-74
2022/09/05 07:59:45;;;;;;;9.50;8.53;;;;;;;;;;1802085;77;21200;-76
2022/09/05 08:02:15;;;;;;;12.20;8.35;;;;;;;;;;1809755;78;21188;-74
2022/09/05 08:04:45;;;;;;;9.85;8.80;;;;;;;;;;1812681;78;21132;-74
2022/09/05 08:07:17;;;;;;;9.15;8.25;;;;;;;;;;1805739;77;21148;-74
2022/09/05 08:09:50;;;;;;;10.28;8.70;;;;;;;;;;1808629;78;21108;-74
2022/09/05 08:12:24;;;;;;;10.85;9.00;;;;;;;;;;1818575;77;21132;-76
2022/09/05 08:14:56;;;;;;;9.78;8.78;;;;;;;;;;1811483;77;21140;-75
2022/09/05 08:17:28;;;;;;;10.80;8.18;;;;;;;;;;1810528;77;21187;-75
2022/09/05 08:20:00;;;;;;;11.55;8.88;;;;;;;;;;1806152;78;21198;-75
2022/09/05 08:22:32;;;;;;;10.40;9.25;;;;;;;;;;1792972;77;21187;-74
2022/09/05 08:25:05;;;;;;;10.10;8.28;;;;;;;;;;1785021;80;21259;-74
2022/09/05 08:27:36;;;;;;;10.45;8.90;;;;;;;;;;1839228;76;21584;-74
2022/09/05 08:30:09;;;;;;;9.08;7.87;;;;;;;;;;1829743;76;21149;-76
2022/09/05 08:32:43;;;;;;;10.88;6.70;;;;;;;;;;1829483;76;21148;-75
2022/09/05 08:35:14;;;;;;;9.68;7.10;;;;;;;;;;1833635;76;21075;-76
2022/09/05 08:37:46;;;;;;;8.20;6.75;;;;;;;;;;1840165;76;21209;-75
2022/09/05 08:40:18;;;;;;;8.18;6.83;;;;;;;;;;1830811;77;21097;-76
2022/09/05 08:42:49;;;;;;;7.42;6.62;;;;;;;;;;1835095;76;21649;-75
2022/09/05 08:45:22;;;;;;;7.87;6.05;;;;;;;;;;1828987;76;21106;-75
2022/09/05 08:47:55;;;;;;;11.15;6.92;;;;;;;;;;1825142;76;21156;-75
2022/09/05 08:50:27;;;;;;;7.25;6.12;;;;;;;;;;1829016;76;21134;-75
2022/09/05 08:52:58;;;;;;;8.45;6.92;;;;;;;;;;1835891;76;21154;-74
2022/09/05 08:55:30;;;;;;;10.13;6.75;;;;;;;;;;1831116;76;21170;-75
2022/09/05 08:58:01;;;;;;;6.53;5.87;;;;;;;;;;1831704;76;21424;-74
2022/09/05 09:00:34;;;;;;;7.85;6.00;;;;;;;;;;1828160;76;21232;-76
2022/09/05 09:03:06;;;;;;;11.35;6.35;;;;;;;;;;1831657;76;21138;-74
2022/09/05 09:05:38;;;;;;;9.68;7.35;;;;;;;;;;1842280;76;21182;-75
2022/09/05 09:08:09;;;;;;;10.98;7.47;;;;;;;;;;1828174;77;21146;-75
2022/09/05 09:10:42;;;;;;;11.35;6.90;;;;;;;;;;1838314;76;21231;-74
2022/09/05 09:13:13;;;;;;;10.15;7.12;;;;;;;;;;1825382;78;21137;-75
2022/09/05 09:15:45;;;;;;;11.57;7.12;;;;;;;;;;1831592;77;21273;-73
2022/09/05 09:18:16;;;;;;;8.18;6.60;;;;;;;;;;1831175;77;21244;-75
2022/09/05 09:20:48;;;;;;;8.15;7.28;;;;;;;;;;1828786;76;21150;-72
2022/09/05 09:23:19;;;;;;;9.90;7.00;;;;;;;;;;1826924;77;21146;-74
2022/09/05 09:25:52;;;;;;;8.63;7.30;;;;;;;;;;1831789;77;21202;-73
2022/09/05 09:28:23;;;;;;;9.08;7.67;;;;;;;;;;1829673;77;21186;-72
2022/09/05 09:30:56;;;;;;;9.60;7.53;;;;;;;;;;1794670;77;21181;-74
2022/09/05 09:33:28;;;;;;;9.48;7.30;;;;;;;;;;1816533;78;21179;-73
2022/09/05 09:35:59;;;;;;;8.68;7.37;;;;;;;;;;1809744;78;21179;-74
2022/09/05 09:38:32;;;;;;;9.13;7.22;;;;;;;;;;1817426;78;21164;-73
2022/09/05 09:41:03;;;;;;;9.45;7.53;;;;;;;;;;1809535;78;21153;-74
2022/09/05 09:43:34;;;;;;;9.50;7.85;;;;;;;;;;1813709;77;21454;-74
2022/09/05 09:46:05;;;;;;;10.15;7.70;;;;;;;;;;1806938;78;21181;-73
2022/09/05 09:48:36;;;;;;;8.65;7.75;;;;;;;;;;1809307;78;21230;-74
2022/09/05 09:51:07;;;;;;;10.30;7.33;;;;;;;;;;1812210;78;21143;-74
2022/09/05 09:53:39;;;;;;;9.40;6.05;;;;;;;;;;1818084;78;21602;-75
2022/09/05 09:56:10;;;;;;;7.92;5.80;;;;;;;;;;1811206;78;21195;-74
2022/09/05 09:58:41;;;;;;;6.25;5.15;;;;;;;;;;1807428;78;21223;-75
2022/09/05 10:01:13;;;;;;;8.50;5.20;;;;;;;;;;1813870;78;21147;-75
2022/09/05 10:03:46;;;;;;;7.17;5.17;;;;;;;;;;1804466;78;22002;-73
2022/09/05 10:06:19;;;;;;;9.35;5.40;;;;;;;;;;1809911;77;21165;-74
2022/09/05 10:08:51;;;;;;;7.83;5.20;;;;;;;;;;1808433;77;21646;-76
2022/09/05 10:11:25;;;;;;;9.40;5.05;;;;;;;;;;1823868;77;21167;-74
2022/09/05 10:13:58;;;;;;;7.28;4.50;;;;;;;;;;1827256;77;21163;-73
2022/09/05 10:16:29;;;;;;;6.62;4.62;;;;;;;;;;1817316;78;21203;-74
2022/09/05 10:18:59;;;;;;;8.35;4.90;;;;;;;;;;1814802;78;21763;-73
2022/09/05 10:21:31;;;;;;;5.92;4.50;;;;;;;;;;1826706;77;21155;-74
2022/09/05 10:24:02;;;;;;;6.75;5.25;;;;;;;;;;1815698;77;21188;-73
2022/09/05 10:26:32;;;;;;;8.78;6.00;;;;;;;;;;1820424;77;21140;-74
2022/09/05 10:29:02;;;;;;;9.55;5.80;;;;;;;;;;1826831;77;21152;-73
2022/09/05 10:31:36;;;;;;;7.20;5.17;;;;;;;;;;1804964;78;21239;-73
2022/09/05 10:34:09;;;;;;;7.03;5.17;;;;;;;;;;1829253;76;21153;-72
2022/09/05 10:36:41;;;;;;;8.23;5.35;;;;;;;;;;1826988;77;21132;-73
2022/09/05 10:39:13;;;;;;;6.92;4.85;;;;;;;;;;1832003;77;21191;-73
2022/09/05 10:41:43;;;;;;;6.12;4.83;;;;;;;;;;1843938;77;21158;-73
2022/09/05 10:44:14;;;;;;;7.22;4.80;;;;;;;;;;1834739;77;21214;-74
2022/09/05 10:46:44;;;;;;;5.72;4.15;;;;;;;;;;1824464;78;21261;-72
2022/09/05 10:49:16;;;;;;;5.97;4.90;;;;;;;;;;1829705;77;21268;-72
2022/09/05 10:51:48;;;;;;;6.97;4.92;;;;;;;;;;1841688;77;21177;-73
2022/09/05 10:54:21;;;;;;;8.28;4.58;;;;;;;;;;1819563;78;21261;-70
2022/09/05 10:56:54;;;;;;;5.80;5.15;;;;;;;;;;1819587;78;21223;-72
2022/09/05 10:59:25;;;;;;;8.70;6.03;;;;;;;;;;1817983;77;21194;-73
2022/09/05 11:01:59;;;;;;;7.40;5.20;;;;;;;;;;1820784;78;21265;-72
2022/09/05 11:04:32;;;;;;;8.25;5.33;;;;;;;;;;1815984;78;21206;-72
2022/09/05 11:07:04;;;;;;;7.35;5.00;;;;;;;;;;1820279;78;21111;-71
2022/09/05 11:09:36;;;;;;;8.55;5.37;;;;;;;;;;1826880;78;21143;-73
2022/09/05 11:12:07;;;;;;;8.48;5.30;;;;;;;;;;1822474;78;21154;-72
2022/09/05 11:14:40;;;;;;;7.28;5.72;;;;;;;;;;1833114;78;21179;-73
2022/09/05 11:17:11;;;;;;;6.15;5.37;;;;;;;;;;1835356;78;21147;-73
2022/09/05 11:19:41;;;;;;;6.70;5.40;;;;;;;;;;1833881;78;21108;-73
2022/09/05 11:22:14;;;;;;;8.03;5.30;;;;;;;;;;1827300;78;21143;-73
2022/09/05 11:24:45;;;;;;;7.37;4.70;;;;;;;;;;1833407;77;22043;-73
2022/09/05 11:27:15;;;;;;;7.15;5.53;;;;;;;;;;1833774;77;21252;-72
2022/09/05 11:29:48;;;;;;;6.72;4.65;;;;;;;;;;1834699;77;21161;-73
2022/09/05 11:32:19;;;;;;;7.30;5.33;;;;;;;;;;1834052;77;21136;-73
2022/09/05 11:34:52;;;;;;;6.60;5.85;;;;;;;;;;1810660;77;21132;-73
2022/09/05 11:37:27;;;;;;;8.00;5.80;;;;;;;;;;1792656;79;21750;-73
2022/09/05 11:40:00;;;;;;;10.32;5.95;;;;;;;;;;1795574;79;21251;-73
2022/09/05 11:42:31;;;;;;;7.60;5.42;;;;;;;;;;1795118;78;21648;-73
2022/09/05 11:45:03;;;;;;;8.33;5.97;;;;;;;;;;1794626;80;21103;-73
2022/09/05 11:47:34;;;;;;;11.05;6.75;;;;;;;;;;1788906;80;21579;-72
2022/09/05 11:50:09;;;;;;;8.25;6.15;;;;;;;;;;1797058;78;21220;-73
2022/09/05 11:52:40;;;;;;;6.67;4.87;;;;;;;;;;1811871;78;21183;-73
2022/09/05 11:55:12;;;;;;;8.08;4.97;;;;;;;;;;1809909;78;21205;-73
2022/09/05 11:57:45;;;;;;;5.62;4.10;;;;;;;;;;1781181;79;21242;-72
2022/09/05 12:00:17;;;;;;;6.08;3.83;;;;;;;;;;1793950;78;21177;-72
2022/09/05 12:02:49;;;;;;;5.92;3.52;;;;;;;;;;1792427;78;21177;-73
2022/09/05 12:05:21;;;;;;;5.87;3.30;;;;;;;;;;1799253;78;21202;-73
2022/09/05 12:07:56;;;;;;;4.10;3.00;;;;;;;;;;1811052;78;21202;-72
2022/09/05 12:10:26;;;;;;;6.58;3.40;;;;;;;;;;1804923;78;21209;-72
2022/09/05 12:12:59;;;;;;;7.80;3.47;;;;;;;;;;1797191;78;21174;-72
2022/09/05 12:15:33;;;;;;;4.55;3.02;;;;;;;;;;1791553;79;21170;-73
2022/09/05 12:18:02;;;;;;;6.95;3.72;;;;;;;;;;1794915;79;21208;-73
2022/09/05 12:20:34;;;;;;;6.60;3.85;;;;;;;;;;1762369;80;21270;-73
2022/09/05 12:23:07;;;;;;;5.62;3.98;;;;;;;;;;1754151;80;21238;-73
2022/09/05 12:25:43;;;;;;;5.10;4.12;;;;;;;;;;1794270;78;21152;-72
2022/09/05 12:28:14;;;;;;;6.05;4.00;;;;;;;;;;1835720;77;21291;-72
2022/09/05 12:30:46;;;;;;;6.33;4.50;;;;;;;;;;1832979;77;21189;-72
2022/09/05 12:33:19;;;;;;;6.72;4.40;;;;;;;;;;1842286;77;21107;-73
2022/09/05 12:35:52;;;;;;;4.15;3.42;;;;;;;;;;1814697;77;21185;-74
2022/09/05 12:38:24;;;;;;;4.97;4.20;;;;;;;;;;1824642;76;21110;-73
2022/09/05 12:40:58;;;;;;;6.58;4.15;;;;;;;;;;1825249;76;21232;-74
2022/09/05 12:43:30;;;;;;;6.35;4.72;;;;;;;;;;1827828;77;21211;-73
2022/09/05 12:46:02;;;;;;;6.08;4.65;;;;;;;;;;1831554;76;21683;-73
2022/09/05 12:48:35;;;;;;;6.17;4.15;;;;;;;;;;1832177;77;21125;-73
2022/09/05 12:51:08;;;;;;;6.37;4.83;;;;;;;;;;1858038;77;21244;-73
2022/09/05 12:53:41;;;;;;;6.17;3.77;;;;;;;;;;1827909;76;21168;-74
2022/09/05 12:56:13;;;;;;;7.40;4.78;;;;;;;;;;1838957;77;21205;-74
2022/09/05 12:58:46;;;;;;;6.33;4.05;;;;;;;;;;1842702;77;21132;-74
2022/09/05 13:01:18;;;;;;;4.97;4.20;;;;;;;;;;1835874;77;21174;-74
2022/09/05 13:03:50;;;;;;;8.63;4.58;;;;;;;;;;1823419;77;21275;-73
2022/09/05 13:06:23;;;;;;;4.35;3.95;;;;;;;;;;1826144;77;21165;-71
2022/09/05 13:08:56;;;;;;;5.03;3.77;;;;;;;;;;1797514;78;21729;-74
2022/09/05 13:11:29;;;;;;;5.30;4.00;;;;;;;;;;1827231;73;21248;-72
2022/09/05 13:14:04;;;;;;;7.05;4.80;;;;;;;;;;1821319;78;21447;-73
2022/09/05 13:16:38;;;;;;;6.80;4.95;;;;;;;;;;1832104;77;21141;-73
2022/09/05 13:19:10;;;;;;;5.28;4.35;;;;;;;;;;1831694;77;21079;-72
2022/09/05 13:21:44;;;;;;;8.28;4.80;;;;;;;;;;1831230;77;21208;-72
2022/09/05 13:24:16;;;;;;;5.25;4.03;;;;;;;;;;1828070;77;21146;-80
2022/09/05 13:26:48;;;;;;;6.83;4.78;;;;;;;;;;1831123;77;21723;-84
2022/09/05 13:29:22;;;;;;;6.95;4.28;;;;;;;;;;1835041;75;21882;-84
2022/09/05 13:31:54;;;;;;;5.70;4.62;;;;;;;;;;1831876;77;21138;-83
2022/09/05 13:34:25;;;;;;;9.23;4.83;;;;;;;;;;1827854;77;21578;-84
2022/09/05 13:37:02;;;;;;;5.87;5.28;;;;;;;;;;1840490;76;21216;-83
2022/09/05 13:39:32;;;;;;;8.33;5.67;;;;;;;;;;1822853;78;21217;-83
2022/09/05 13:42:03;;;;;;;8.13;5.45;;;;;;;;;;1831472;76;21114;-84
2022/09/05 13:44:35;;;;;;;7.83;6.25;;;;;;;;;;1831150;77;21059;-84
2022/09/05 13:47:08;;;;;;;7.30;5.47;;;;;;;;;;1829164;75;21146;-82
2022/09/05 13:49:42;;;;;;;6.90;5.50;;;;;;;;;;1833911;76;21154;-83
2022/09/05 13:52:13;;;;;;;7.37;6.08;;;;;;;;;;1824516;76;21211;-83
2022/09/05 13:54:45;;;;;;;6.47;5.67;;;;;;;;;;1797770;78;21178;-83
2022/09/05 13:57:17;;;;;;;8.08;5.42;;;;;;;;;;1827183;76;21272;-83
2022/09/05 13:59:50;;;;;;;6.62;5.42;;;;;;;;;;1810046;77;21181;-83
2022/09/05 14:02:25;;;;;;;9.00;5.60;;;;;;;;;;1838806;76;21153;-82
2022/09/05 14:04:56;;;;;;;6.53;5.85;;;;;;;;;;1835863;76;21173;-83
2022/09/05 14:07:33;;;;;;;7.62;5.62;;;;;;;;;;1855292;76;21080;-83
2022/09/05 14:10:06;;;;;;;11.97;6.08;;;;;;;;;;1828146;76;21588;-85
2022/09/05 14:12:37;;;;;;;7.17;6.03;;;;;;;;;;1839786;76;21178;-84
2022/09/05 14:15:10;;;;;;;8.10;6.17;;;;;;;;;;1843053;76;21113;-84
2022/09/05 14:17:46;;;;;;;6.62;5.70;;;;;;;;;;1845694;76;21165;-84
2022/09/05 14:22:50;;;;;;;8.00;5.42;;;;;;;;;;1837147;76;21193;-83
2022/09/05 14:25:23;;;;;;;10.90;6.15;;;;;;;;;;1802964;78;21142;-84
2022/09/05 14:27:55;;;;;;;7.28;5.25;;;;;;;;;;1789850;78;21112;-83
2022/09/05 14:30:26;;;;;;;7.50;5.65;;;;;;;;;;1789931;79;21195;-82
2022/09/05 14:32:59;;;;;;;6.90;5.45;;;;;;;;;;1795469;78;21193;-82
2022/09/05 14:35:35;;;;;;;10.68;6.20;;;;;;;;;;1816265;77;21149;-85
2022/09/05 14:38:08;;;;;;;7.92;5.72;;;;;;;;;;1824701;77;21143;-84
2022/09/05 14:40:43;;;;;;;7.25;6.25;;;;;;;;;;1823020;77;21144;-84
2022/09/05 14:43:29;;;;;;;8.75;6.20;;;;;;;;;;1826857;78;21179;-83
2022/09/05 14:46:02;;;;;;;8.28;6.10;;;;;;;;;;1818307;78;21237;-84
2022/09/05 14:48:34;;;;;;;8.45;6.10;;;;;;;;;;1787186;79;21183;-83
2022/09/05 14:51:07;;;;;;;7.33;6.20;;;;;;;;;;1796132;78;21663;-83
2022/09/05 14:53:38;;;;;;;9.13;6.10;;;;;;;;;;1782401;79;21091;-84
2022/09/05 14:56:11;;;;;;;9.53;6.50;;;;;;;;;;1828809;76;21243;-83
2022/09/05 14:58:45;;;;;;;8.45;6.83;;;;;;;;;;1829670;77;21669;-82
2022/09/05 15:01:18;;;;;;;10.15;7.00;;;;;;;;;;1826510;77;21182;-84
2022/09/05 15:03:50;;;;;;;10.90;6.85;;;;;;;;;;1806151;76;21212;-83